Time;durP1;ratioP1;P1;durP2;ratioP2;P2;SDS_P1;SDS_P2;PMS_P1;PMS_P2;Temp;Humidity;BMP_temperature;BMP_pressure;BME280_temperature;BME280_humidity;BME280_pressure;Samples;Min_cycle;Max_cycle;Signal;HPM_P1;HPM_P2
2022/04/17 00:00:55;;;;;;;4.03;3.03;;;;;;;7.88;43.06;100343.66;5086063;28;20044;-69
2022/04/17 00:03:28;;;;;;;5.63;3.92;;;;;;;7.81;43.18;100343.88;5086083;28;20107;-69
2022/04/17 00:06:01;;;;;;;5.55;3.67;;;;;;;7.52;43.26;100291.91;5085564;28;20059;-70
2022/04/17 00:08:34;;;;;;;4.60;3.22;;;;;;;7.73;43.36;100337.94;5085589;28;20064;-70
2022/04/17 00:11:07;;;;;;;5.10;3.40;;;;;;;7.68;43.43;100341.56;5085840;28;20085;-69
2022/04/17 00:13:39;;;;;;;4.10;2.67;;;;;;;7.67;43.36;100336.34;5085610;28;20293;-69
2022/04/17 00:16:11;;;;;;;4.35;3.15;;;;;;;7.65;43.50;100323.19;5085852;28;20044;-69
2022/04/17 00:18:43;;;;;;;3.63;2.70;;;;;;;7.59;43.52;100325.13;5085687;28;20044;-69
2022/04/17 00:21:16;;;;;;;5.03;3.45;;;;;;;7.57;43.56;100326.94;5085436;28;20082;-69
2022/04/17 00:23:50;;;;;;;4.93;3.80;;;;;;;7.60;43.53;100329.50;5085732;28;20040;-69
2022/04/17 00:26:22;;;;;;;5.03;4.13;;;;;;;7.55;43.56;100324.34;5085666;28;20082;-69
2022/04/17 00:28:54;;;;;;;4.80;3.20;;;;;;;7.55;43.56;100323.50;5085307;28;20036;-69
2022/04/17 00:31:26;;;;;;;3.97;3.05;;;;;;;7.49;43.59;100313.97;5085343;28;20044;-70
2022/04/17 00:33:59;;;;;;;4.60;4.03;;;;;;;7.44;43.83;100315.88;5085629;28;20307;-69
2022/04/17 00:36:31;;;;;;;6.15;3.28;;;;;;;7.44;43.77;100320.28;5085595;28;20106;-69
2022/04/17 00:39:04;;;;;;;6.50;4.28;;;;;;;7.44;43.76;100309.72;5085292;28;20090;-69
2022/04/17 00:41:37;;;;;;;4.45;3.65;;;;;;;7.41;43.73;100308.03;5085200;28;20048;-69
2022/04/17 00:44:11;;;;;;;5.05;3.40;;;;;;;7.43;43.77;100308.88;5085186;28;20215;-69
2022/04/17 00:46:43;;;;;;;5.90;3.53;;;;;;;7.42;43.63;100301.00;5085134;28;20045;-69
2022/04/17 00:49:16;;;;;;;4.53;3.40;;;;;;;7.40;44.14;100308.94;5085156;28;20247;-69
2022/04/17 00:51:48;;;;;;;5.45;4.13;;;;;;;7.38;43.78;100310.75;5085167;28;20048;-69
2022/04/17 00:54:26;;;;;;;4.38;3.47;;;;;;;7.00;44.04;100256.38;5085110;28;20086;-69
2022/04/17 00:57:00;;;;;;;3.85;3.17;;;;;;;7.24;44.09;100310.22;5085080;28;20047;-69
2022/04/17 00:59:33;;;;;;;4.05;2.72;;;;;;;7.23;44.06;100313.78;5085072;28;20044;-68
2022/04/17 01:02:07;;;;;;;4.68;3.33;;;;;;;7.17;44.15;100309.53;5084999;28;20090;-69
2022/04/17 01:04:39;;;;;;;6.35;3.42;;;;;;;7.18;44.18;100315.66;5085343;28;20288;-69
2022/04/17 01:07:12;;;;;;;5.32;4.18;;;;;;;7.16;44.12;100314.84;5084877;28;20224;-69
2022/04/17 01:09:46;;;;;;;5.43;3.65;;;;;;;7.16;44.05;100315.69;5085083;28;20052;-68
2022/04/17 01:12:18;;;;;;;4.97;3.42;;;;;;;7.14;44.02;100314.00;5085123;28;20052;-69
2022/04/17 01:14:51;;;;;;;4.18;3.05;;;;;;;7.17;44.22;100308.66;5085065;28;20037;-69
2022/04/17 01:17:23;;;;;;;4.85;4.03;;;;;;;7.19;44.20;100309.47;5085033;28;20090;-69
2022/04/17 01:19:56;;;;;;;5.90;3.85;;;;;;;7.17;44.17;100312.16;5085189;28;20045;-69
2022/04/17 01:22:29;;;;;;;5.72;3.67;;;;;;;7.09;44.43;100308.00;5084871;28;20297;-69
2022/04/17 01:27:51;;;;;;;5.93;3.50;;;;;;;6.98;44.43;100314.41;5085116;28;20036;-69
2022/04/17 01:30:23;;;;;;;5.32;3.10;;;;;;;6.67;44.34;100258.94;5067361;28;20243;-69
2022/04/17 01:32:55;;;;;;;4.65;2.85;;;;;;;6.96;44.42;100305.66;5085058;28;20048;-70
2022/04/17 01:35:25;;;;;;;3.90;3.00;;;;;;;6.92;44.43;100304.03;5084990;28;20041;-69
2022/04/17 01:37:57;;;;;;;6.35;4.05;;;;;;;6.90;44.63;100302.31;5084822;28;20040;-69
2022/04/17 01:40:26;;;;;;;4.28;3.05;;;;;;;6.85;44.67;100307.72;5067203;28;20064;-70
2022/04/17 01:42:56;;;;;;;6.32;3.90;;;;;;;6.85;44.64;100298.94;5084736;28;20040;-70
2022/04/17 01:45:27;;;;;;;4.18;3.00;;;;;;;6.85;44.55;100293.66;5067456;28;20104;-71
2022/04/17 01:47:57;;;;;;;4.13;3.15;;;;;;;6.88;44.52;100293.59;5084647;28;20041;-70
2022/04/17 01:50:27;;;;;;;5.30;4.18;;;;;;;6.84;44.54;100284.03;5067298;28;20041;-70
2022/04/17 01:53:00;;;;;;;4.43;2.92;;;;;;;6.86;44.47;100282.22;5068975;28;20037;-70
2022/04/17 01:55:28;;;;;;;5.18;3.03;;;;;;;6.81;44.61;100279.72;5088252;28;20080;-69
2022/04/17 01:57:58;;;;;;;4.35;3.03;;;;;;;6.16;44.64;100181.22;5088210;28;20064;-70
2022/04/17 02:00:28;;;;;;;5.32;3.80;;;;;;;6.73;44.69;100286.91;5088082;28;20040;-70
2022/04/17 02:02:58;;;;;;;4.25;3.05;;;;;;;6.46;44.60;100245.44;5070540;28;20096;-70
2022/04/17 02:05:29;;;;;;;4.72;3.05;;;;;;;6.68;44.84;100281.75;5088403;28;20044;-70
2022/04/17 02:08:00;;;;;;;8.48;3.20;;;;;;;6.62;44.92;100286.31;5087829;28;20056;-70
2022/04/17 02:10:29;;;;;;;5.65;3.40;;;;;;;6.63;44.99;100288.03;5088528;28;20028;-70
2022/04/17 02:13:00;;;;;;;5.85;3.70;;;;;;;6.58;44.91;100280.25;5087875;28;20044;-70
2022/04/17 02:15:30;;;;;;;5.80;3.33;;;;;;;6.62;44.86;100273.13;5087905;28;20079;-70
2022/04/17 02:18:00;;;;;;;8.23;3.33;;;;;;;6.64;44.86;100269.56;5087872;28;20040;-69
2022/04/17 02:20:30;;;;;;;4.47;3.22;;;;;;;6.63;44.99;100272.22;5088147;28;20196;-69
2022/04/17 02:23:02;;;;;;;5.00;3.42;;;;;;;6.62;45.08;100271.38;5087896;28;20064;-69
2022/04/17 02:25:31;;;;;;;5.03;3.33;;;;;;;6.60;45.02;100265.25;5087930;28;20104;-69
2022/04/17 02:28:01;;;;;;;4.63;3.33;;;;;;;6.62;44.76;100270.50;5087957;28;20219;-70
2022/04/17 02:30:31;;;;;;;6.78;3.72;;;;;;;6.62;45.17;100266.09;5087662;28;20078;-70
2022/04/17 02:33:02;;;;;;;4.43;3.20;;;;;;;6.57;45.37;100267.09;5087824;28;20044;-69
2022/04/17 02:35:32;;;;;;;4.95;2.95;;;;;;;6.57;45.27;100269.75;5070102;28;20047;-70
2022/04/17 02:38:04;;;;;;;4.07;3.08;;;;;;;6.53;45.08;100278.63;5087595;28;20044;-70
2022/04/17 02:40:32;;;;;;;5.68;3.25;;;;;;;6.45;45.55;100260.38;5087442;28;20308;-70
2022/04/17 02:43:03;;;;;;;3.92;3.03;;;;;;;6.50;45.48;100257.63;5087247;28;20046;-70
2022/04/17 02:45:33;;;;;;;6.18;4.00;;;;;;;5.48;45.58;100096.91;5069800;28;20289;-70
2022/04/17 02:48:04;;;;;;;5.30;3.88;;;;;;;6.43;45.59;100255.13;5087296;28;20044;-70
2022/04/17 02:50:34;;;;;;;4.70;3.10;;;;;;;6.40;45.68;100249.94;5087245;28;20050;-70
2022/04/17 02:53:06;;;;;;;5.60;3.42;;;;;;;6.10;45.77;100204.16;5087237;28;20045;-70
2022/04/17 02:55:34;;;;;;;4.75;3.20;;;;;;;6.38;45.82;100254.38;5087413;28;20120;-70
2022/04/17 02:58:04;;;;;;;4.93;3.30;;;;;;;6.39;45.52;100248.22;5087106;28;20043;-70
2022/04/17 03:05:35;;;;;;;6.07;3.42;;;;;;;6.37;45.71;100250.03;5087307;28;20045;-69
2022/04/17 03:06:17;;;;;;;6.07;3.63;;;;;;;6.32;45.80;100251.03;5069485;28;20070;-70
2022/04/17 03:08:51;;;;;;;4.47;3.60;;;;;;;6.33;45.85;100247.50;5086733;28;20430;-69
2022/04/17 03:11:23;;;;;;;4.15;3.28;;;;;;;6.31;45.69;100238.78;5086851;28;20048;-69
2022/04/17 03:13:56;;;;;;;5.57;3.97;;;;;;;6.24;45.95;100248.59;5086763;28;20045;-69
2022/04/17 03:16:28;;;;;;;4.85;3.55;;;;;;;5.88;46.01;100196.78;5086960;28;20220;-69
2022/04/17 03:19:00;;;;;;;4.97;3.13;;;;;;;5.89;46.00;100207.28;5086716;28;20110;-70
2022/04/17 03:21:32;;;;;;;4.90;2.95;;;;;;;6.08;46.25;100250.69;5086613;28;20181;-70
2022/04/17 03:24:06;;;;;;;6.57;3.65;;;;;;;5.82;46.19;100186.41;5086469;28;20045;-70
2022/04/17 03:26:41;;;;;;;5.28;3.45;;;;;;;6.12;46.28;100240.09;5086417;28;20086;-70
2022/04/17 03:29:13;;;;;;;5.53;3.88;;;;;;;5.78;46.12;100197.00;5069242;28;20090;-70
2022/04/17 03:31:45;;;;;;;5.15;3.58;;;;;;;6.07;46.27;100240.22;5086290;28;20082;-70
2022/04/17 03:34:18;;;;;;;4.22;3.50;;;;;;;6.05;46.28;100253.41;5086325;28;20050;-69
2022/04/17 03:36:50;;;;;;;4.38;3.50;;;;;;;6.05;46.30;100248.13;5086460;28;20099;-70
2022/04/17 03:39:25;;;;;;;5.10;3.65;;;;;;;6.00;46.70;100255.28;5086425;28;20040;-70
2022/04/17 03:41:57;;;;;;;5.30;3.20;;;;;;;5.99;46.58;100250.91;5068768;28;20041;-70
2022/04/17 03:44:29;;;;;;;5.43;3.45;;;;;;;5.97;46.62;100244.81;5086053;28;20048;-70
2022/04/17 03:47:02;;;;;;;5.88;3.63;;;;;;;5.98;46.67;100246.53;5086117;28;20063;-69
2022/04/17 03:49:34;;;;;;;7.05;3.92;;;;;;;5.93;46.67;100247.53;5086044;28;20051;-69
2022/04/17 03:52:07;;;;;;;5.88;3.47;;;;;;;5.90;46.77;100247.63;5086292;28;20044;-69
2022/04/17 03:54:40;;;;;;;4.78;3.25;;;;;;;5.90;46.71;100248.47;5086235;28;20048;-70
2022/04/17 03:57:13;;;;;;;5.38;3.33;;;;;;;5.90;46.74;100237.94;5085908;28;20048;-70
2022/04/17 03:59:46;;;;;;;4.90;3.53;;;;;;;5.94;46.74;100246.66;5086133;28;20037;-70
2022/04/17 04:02:18;;;;;;;4.90;3.30;;;;;;;5.88;47.14;100238.88;5086073;28;20037;-69
2022/04/17 04:04:50;;;;;;;4.93;3.88;;;;;;;5.80;47.49;100244.31;5068279;28;20087;-69
2022/04/17 04:07:23;;;;;;;5.28;3.55;;;;;;;5.55;47.13;100198.41;5068280;28;20312;-70
2022/04/17 04:09:57;;;;;;;5.25;3.63;;;;;;;5.72;47.48;100228.69;5085986;28;20048;-69
2022/04/17 04:12:29;;;;;;;3.83;3.07;;;;;;;5.73;47.12;100234.81;5085706;28;20040;-70
2022/04/17 04:15:01;;;;;;;4.97;2.85;;;;;;;5.72;47.49;100238.34;5085275;28;20081;-70
2022/04/17 04:17:34;;;;;;;4.57;3.40;;;;;;;5.69;47.36;100234.03;5085567;28;20047;-70
2022/04/17 04:20:08;;;;;;;4.57;3.60;;;;;;;5.49;47.41;100199.41;5085552;28;20036;-70
2022/04/17 04:22:40;;;;;;;6.55;3.70;;;;;;;5.74;47.24;100239.19;5085547;28;20040;-69
2022/04/17 04:25:14;;;;;;;5.95;3.97;;;;;;;5.76;47.49;100245.28;5085700;28;20047;-69
2022/04/17 04:30:36;;;;;;;5.15;3.67;;;;;;;5.72;47.26;100246.25;5085633;28;20040;-70
2022/04/17 04:33:09;;;;;;;5.63;3.60;;;;;;;5.78;47.00;100239.09;5085667;28;20041;-70
2022/04/17 04:35:39;;;;;;;5.28;3.25;;;;;;;5.77;47.36;100247.00;5085669;28;20338;-70
2022/04/17 04:38:09;;;;;;;5.30;3.53;;;;;;;5.76;47.39;100240.88;5068686;28;20040;-70
2022/04/17 04:40:41;;;;;;;4.00;3.28;;;;;;;5.75;47.36;100231.25;5085624;28;20041;-70
2022/04/17 04:43:12;;;;;;;6.68;3.92;;;;;;;5.80;47.24;100241.69;5085493;28;20041;-71
2022/04/17 04:51:21;;;;;;;6.00;3.65;;;;;;;5.80;47.61;100236.44;5085484;28;20040;-70
2022/04/17 04:53:55;;;;;;;4.43;3.30;;;;;;;5.80;47.57;100264.50;5085425;28;20040;-70
2022/04/17 04:56:29;;;;;;;5.10;4.07;;;;;;;5.80;47.74;100231.16;5085204;28;20040;-70
2022/04/17 04:59:03;;;;;;;5.32;3.88;;;;;;;5.86;47.50;100230.16;5067912;28;20044;-70
2022/04/17 05:01:35;;;;;;;5.38;3.72;;;;;;;5.86;47.75;100238.91;5085167;28;20040;-70
2022/04/17 05:04:08;;;;;;;6.18;4.13;;;;;;;5.92;47.64;100237.91;5085125;28;20096;-70
2022/04/17 05:06:40;;;;;;;6.13;3.72;;;;;;;5.91;47.43;100247.56;5085205;28;20037;-70
2022/04/17 05:09:13;;;;;;;5.68;3.60;;;;;;;5.85;47.18;100224.03;5067765;28;20040;-70
2022/04/17 05:11:47;;;;;;;6.88;3.88;;;;;;;5.99;47.39;100250.03;5085379;28;20036;-69
2022/04/17 05:14:20;;;;;;;6.30;4.03;;;;;;;5.95;47.56;100246.59;5085069;28;20052;-69
2022/04/17 05:16:52;;;;;;;5.05;3.78;;;;;;;5.96;47.66;100250.97;5085050;28;20047;-70
2022/04/17 05:19:27;;;;;;;4.90;3.33;;;;;;;5.98;47.58;100246.53;5085336;28;20047;-71
2022/04/17 05:22:02;;;;;;;6.28;3.72;;;;;;;5.73;47.40;100190.09;5067733;28;20055;-70
2022/04/17 05:24:34;;;;;;;6.82;3.50;;;;;;;5.80;47.25;100206.63;5067426;28;20044;-70
2022/04/17 05:27:08;;;;;;;6.30;4.07;;;;;;;6.09;47.58;100249.78;5085259;28;20317;-70
2022/04/17 05:29:41;;;;;;;6.23;3.87;;;;;;;6.09;47.33;100247.16;5088824;28;20045;-70
2022/04/17 05:32:13;;;;;;;5.88;3.50;;;;;;;6.09;47.23;100249.78;5088777;28;20040;-70
2022/04/17 05:34:45;;;;;;;7.97;4.57;;;;;;;6.12;47.34;100254.13;5071325;28;20216;-70
2022/04/17 05:37:18;;;;;;;5.50;3.50;;;;;;;6.17;47.43;100249.63;5088636;28;20040;-70
2022/04/17 05:39:50;;;;;;;6.43;3.80;;;;;;;6.24;47.29;100250.34;5088633;28;20063;-70
2022/04/17 05:42:24;;;;;;;4.63;3.42;;;;;;;6.22;47.58;100250.38;5088626;28;20051;-70
2022/04/17 05:44:57;;;;;;;4.68;4.03;;;;;;;6.27;47.16;100247.63;5088538;28;20090;-69
2022/04/17 05:47:29;;;;;;;4.38;3.42;;;;;;;6.32;47.14;100245.75;5088369;28;20040;-70
2022/04/17 05:50:02;;;;;;;6.13;3.92;;;;;;;6.33;47.32;100250.13;5088332;28;20047;-70
2022/04/17 05:52:35;;;;;;;7.70;3.90;;;;;;;6.34;47.09;100249.22;5088270;28;20044;-70
2022/04/17 05:55:11;;;;;;;5.13;4.07;;;;;;;6.39;47.16;100244.72;5088317;28;20051;-70
2022/04/17 05:57:44;;;;;;;7.57;4.25;;;;;;;5.90;47.02;100171.31;5088494;28;20041;-70
2022/04/17 06:00:17;;;;;;;7.10;4.30;;;;;;;6.51;46.91;100248.81;5088334;28;20048;-70
2022/04/17 06:02:50;;;;;;;5.53;4.00;;;;;;;6.53;46.82;100239.13;5088319;28;20232;-70
2022/04/17 06:05:22;;;;;;;7.80;4.43;;;;;;;6.60;47.04;100241.56;5087918;28;20178;-70
2022/04/17 06:07:55;;;;;;;5.43;3.90;;;;;;;6.69;46.59;100246.59;5087779;28;20052;-70
2022/04/17 06:10:27;;;;;;;5.60;3.45;;;;;;;6.74;46.72;100236.81;5088183;28;20289;-70
2022/04/17 06:13:01;;;;;;;8.77;4.10;;;;;;;6.91;46.40;100240.81;5087884;28;20041;-70
2022/04/17 06:15:33;;;;;;;4.97;3.30;;;;;;;7.08;46.02;100238.59;5087895;28;20204;-70
2022/04/17 06:18:06;;;;;;;6.05;4.20;;;;;;;8.42;43.72;100228.47;5087852;28;20103;-70
2022/04/17 06:20:39;;;;;;;6.55;3.60;;;;;;;13.69;35.09;100201.16;5088084;28;20040;-70
2022/04/17 06:23:11;;;;;;;5.68;3.75;;;;;;;17.44;29.19;100177.75;5070286;28;20044;-70
2022/04/17 06:25:44;;;;;;;5.70;3.38;;;;;;;19.53;26.50;100162.06;5087935;28;20041;-71
2022/04/17 06:28:15;;;;;;;6.13;4.10;;;;;;;21.00;24.78;100156.19;5088005;28;20047;-70
2022/04/17 06:30:44;;;;;;;5.35;3.95;;;;;;;21.99;24.13;100159.13;5087917;28;20048;-70
2022/04/17 06:33:14;;;;;;;5.30;3.92;;;;;;;22.82;23.65;100151.59;5087902;28;20040;-70
2022/04/17 06:35:45;;;;;;;5.47;3.92;;;;;;;23.36;22.58;100116.63;5087942;28;20045;-70
2022/04/17 06:38:15;;;;;;;4.45;3.05;;;;;;;24.02;21.78;100145.41;5087688;28;20044;-70
2022/04/17 06:40:45;;;;;;;7.05;3.38;;;;;;;24.40;22.25;100146.16;5087901;28;20040;-71
2022/04/17 06:43:17;;;;;;;5.85;3.30;;;;;;;24.56;21.90;100141.75;5087818;28;20047;-70
2022/04/17 06:45:46;;;;;;;5.72;2.75;;;;;;;23.87;22.71;100096.31;5087677;28;20047;-70
2022/04/17 06:48:18;;;;;;;4.72;3.30;;;;;;;22.89;22.67;100023.00;5087414;28;20041;-71
2022/04/17 06:50:48;;;;;;;4.88;3.67;;;;;;;22.75;23.64;100161.28;5087949;28;20082;-71
2022/04/17 06:53:17;;;;;;;5.28;3.38;;;;;;;21.04;25.64;100160.38;5087348;28;20041;-71
2022/04/17 06:55:48;;;;;;;6.40;3.78;;;;;;;18.20;28.62;100029.19;5087249;28;20296;-71
2022/04/17 06:58:18;;;;;;;4.55;2.95;;;;;;;17.62;29.73;100179.16;5087165;28;20040;-71
2022/04/17 07:00:48;;;;;;;5.85;2.63;;;;;;;16.72;32.06;100176.47;5087179;28;20040;-71
2022/04/17 07:03:17;;;;;;;4.82;3.05;;;;;;;15.94;32.86;100138.81;5087048;28;20197;-71
2022/04/17 07:05:48;;;;;;;5.22;3.42;;;;;;;15.70;33.51;100186.69;5087230;28;20040;-71
2022/04/17 07:08:18;;;;;;;5.53;4.15;;;;;;;15.28;34.30;100194.66;5086875;28;20048;-71
2022/04/17 07:10:48;;;;;;;9.30;4.40;;;;;;;14.86;34.89;100188.31;5069617;28;20048;-71
2022/04/17 07:13:21;;;;;;;5.97;3.97;;;;;;;14.61;34.74;100190.69;5086789;28;20059;-71
2022/04/17 07:15:54;;;;;;;5.47;4.22;;;;;;;14.16;35.09;100154.16;5087022;28;20041;-71
2022/04/17 07:18:24;;;;;;;8.70;3.72;;;;;;;13.20;35.92;100029.91;5086921;28;20047;-71
2022/04/17 07:20:54;;;;;;;5.32;4.00;;;;;;;13.85;36.46;100203.84;5069553;28;20044;-71
2022/04/17 07:23:24;;;;;;;6.20;3.35;;;;;;;13.62;36.19;100207.78;5086882;28;20040;-71
2022/04/17 07:25:56;;;;;;;4.35;3.60;;;;;;;13.56;36.25;100200.13;5086354;28;20181;-70
2022/04/17 07:28:26;;;;;;;4.32;3.20;;;;;;;13.38;35.88;100198.41;5086488;28;20044;-71
2022/04/17 07:30:55;;;;;;;4.40;2.60;;;;;;;13.37;35.89;100202.00;5086387;28;20041;-71
2022/04/17 07:33:25;;;;;;;5.35;2.90;;;;;;;13.34;35.11;100200.38;5086397;28;20044;-70
2022/04/17 07:35:56;;;;;;;5.57;3.20;;;;;;;13.32;35.94;100196.06;5086458;28;20217;-70
2022/04/17 07:38:26;;;;;;;4.93;3.60;;;;;;;13.34;35.19;100194.19;5086453;28;20078;-70
2022/04/17 07:40:56;;;;;;;5.28;3.08;;;;;;;13.38;35.26;100193.09;5086441;28;20040;-71
2022/04/17 07:43:28;;;;;;;5.72;3.05;;;;;;;13.41;35.09;100180.47;5086542;28;20040;-71
2022/04/17 07:45:58;;;;;;;4.05;2.90;;;;;;;13.42;35.17;100195.53;5086051;28;20263;-71
2022/04/17 07:48:27;;;;;;;4.40;3.00;;;;;;;13.48;34.79;100187.22;5086237;28;20086;-71
2022/04/17 07:50:57;;;;;;;3.65;2.17;;;;;;;13.57;34.96;100188.53;5085428;28;20049;-70
2022/04/17 07:53:28;;;;;;;4.45;3.13;;;;;;;13.69;34.48;100179.00;5086589;28;20036;-71
2022/04/17 07:55:58;;;;;;;6.32;3.03;;;;;;;13.60;33.99;100177.69;5085939;28;20331;-71
2022/04/17 07:58:34;;;;;;;4.50;2.95;;;;;;;13.69;34.55;100169.19;5086169;28;20040;-70
2022/04/17 08:01:11;;;;;;;4.88;2.70;;;;;;;13.79;34.55;100170.41;5085946;28;20040;-70
2022/04/17 08:03:47;;;;;;;4.82;2.67;;;;;;;13.90;34.08;100167.16;5085883;28;20041;-71
2022/04/17 08:06:21;;;;;;;3.78;2.60;;;;;;;13.97;34.05;100162.34;5085860;28;20036;-71
2022/04/17 08:08:54;;;;;;;3.80;3.10;;;;;;;13.70;32.36;100130.97;5085865;28;20138;-70
2022/04/17 08:11:28;;;;;;;4.43;2.85;;;;;;;13.81;33.54;100154.34;5085660;28;20047;-70
2022/04/17 08:14:02;;;;;;;5.07;3.00;;;;;;;13.84;33.89;100159.50;5085834;28;20108;-70
2022/04/17 08:16:34;;;;;;;3.30;2.38;;;;;;;13.77;33.82;100164.31;5085576;28;20044;-70
2022/04/17 08:19:07;;;;;;;4.70;3.08;;;;;;;13.86;33.39;100159.41;5085550;28;20040;-70
2022/04/17 08:21:40;;;;;;;3.35;2.50;;;;;;;13.73;32.75;100162.75;5085575;28;20052;-71
2022/04/17 08:24:12;;;;;;;4.60;2.90;;;;;;;13.58;33.41;100107.69;5085395;28;20240;-71
2022/04/17 08:26:44;;;;;;;3.60;2.58;;;;;;;13.85;32.94;100150.56;5085602;28;20040;-71
2022/04/17 08:29:19;;;;;;;4.43;2.95;;;;;;;13.85;32.29;100153.22;5085399;28;20110;-71
2022/04/17 08:31:51;;;;;;;3.90;2.72;;;;;;;13.61;32.56;100146.59;5085409;28;20040;-70
2022/04/17 08:34:24;;;;;;;5.82;3.05;;;;;;;13.64;32.75;100149.09;5085474;28;20044;-70
2022/04/17 08:36:57;;;;;;;4.72;2.53;;;;;;;13.82;33.08;100141.88;5085262;28;20044;-70
2022/04/17 08:39:29;;;;;;;3.95;2.40;;;;;;;14.07;32.34;100142.22;5085300;28;20040;-71
2022/04/17 08:42:05;;;;;;;3.60;2.15;;;;;;;13.87;29.79;100137.16;5085616;28;20040;-70
2022/04/17 08:44:39;;;;;;;3.60;2.60;;;;;;;13.87;31.24;100140.69;5085354;28;20041;-70
2022/04/17 08:47:12;;;;;;;4.45;3.10;;;;;;;13.60;29.78;100142.22;5085194;28;20119;-70
2022/04/17 08:49:45;;;;;;;2.90;1.67;;;;;;;13.37;29.01;100141.63;5085137;28;20201;-70
2022/04/17 08:52:18;;;;;;;6.40;2.20;;;;;;;13.71;30.24;100129.16;5085168;28;20165;-70
2022/04/17 08:54:51;;;;;;;3.75;2.00;;;;;;;13.94;30.00;100133.19;5085200;28;20090;-70
2022/04/17 08:57:23;;;;;;;3.28;2.28;;;;;;;14.21;29.98;100123.63;5084855;28;20044;-71
2022/04/17 08:59:58;;;;;;;3.17;2.05;;;;;;;14.39;29.50;100125.22;5067534;28;20319;-71
2022/04/17 09:02:30;;;;;;;3.10;1.95;;;;;;;14.41;30.27;100074.44;5086169;28;20041;-71
2022/04/17 09:05:04;;;;;;;5.22;2.92;;;;;;;14.83;29.58;100110.22;5071992;28;20208;-70
2022/04/17 09:07:40;;;;;;;3.15;2.22;;;;;;;14.96;28.88;100140.56;5089259;28;20071;-71
2022/04/17 09:10:24;;;;;;;4.03;2.38;;;;;;;15.01;28.08;100112.63;5089155;28;20212;-71
2022/04/17 09:12:57;;;;;;;4.85;3.13;;;;;;;14.87;29.41;100112.63;5089042;28;20040;-71
2022/04/17 09:15:33;;;;;;;4.07;2.35;;;;;;;14.96;28.58;100105.88;5089182;28;20195;-71
2022/04/17 09:18:08;;;;;;;3.20;1.90;;;;;;;14.83;28.97;100102.22;5089060;28;20047;-70
2022/04/17 09:20:46;;;;;;;3.47;2.17;;;;;;;14.84;26.74;100102.13;5089072;28;20040;-71
2022/04/17 09:23:33;;;;;;;5.13;2.53;;;;;;;14.96;26.53;100088.03;5089258;28;20040;-70
2022/04/17 09:26:02;;;;;;;4.50;2.45;;;;;;;14.89;28.50;100105.38;5088820;28;20040;-70
2022/04/17 09:28:33;;;;;;;5.15;2.95;;;;;;;14.95;28.96;100096.16;5089184;28;20040;-71
2022/04/17 09:31:11;;;;;;;6.10;3.60;;;;;;;14.74;27.53;100043.13;5089006;28;20041;-71
2022/04/17 09:33:49;;;;;;;5.53;3.28;;;;;;;14.92;28.64;100075.84;5089117;28;20047;-71
2022/04/17 09:36:31;;;;;;;3.72;2.63;;;;;;;14.94;26.23;100075.75;5089025;28;20063;-70
2022/04/17 09:39:15;;;;;;;3.70;2.78;;;;;;;14.96;26.20;100081.84;5088798;28;20197;-70
2022/04/17 09:41:55;;;;;;;4.43;3.00;;;;;;;15.21;26.85;100058.00;5088411;28;20040;-70
2022/04/17 09:44:49;;;;;;;4.95;2.42;;;;;;;15.55;26.63;100050.50;5088535;28;20205;-70
2022/04/17 09:47:24;;;;;;;3.47;2.20;;;;;;;15.70;27.87;100057.56;5088479;28;20051;-70
2022/04/17 09:49:58;;;;;;;3.03;2.20;;;;;;;15.76;26.77;100040.25;5088750;28;20044;-70
2022/04/17 09:52:32;;;;;;;4.00;2.53;;;;;;;15.75;27.36;100042.09;5088303;28;20045;-70
2022/04/17 09:55:05;;;;;;;4.57;2.60;;;;;;;14.83;27.83;99894.09;5088421;28;20043;-71
2022/04/17 09:57:39;;;;;;;6.55;2.70;;;;;;;15.68;25.67;100044.28;5088358;28;20040;-70
2022/04/17 10:00:14;;;;;;;3.83;2.50;;;;;;;15.39;27.00;100050.63;5088190;28;20051;-71
2022/04/17 10:02:49;;;;;;;3.35;2.75;;;;;;;15.48;27.31;100033.16;5088167;28;20048;-71
2022/04/17 10:05:22;;;;;;;4.72;3.22;;;;;;;15.62;28.05;100041.13;5088614;28;20059;-71
2022/04/17 10:07:55;;;;;;;3.33;2.35;;;;;;;15.74;27.81;100019.00;5070731;28;20048;-71
2022/04/17 10:10:28;;;;;;;4.50;2.20;;;;;;;15.93;27.42;100021.28;5088098;28;20101;-70
2022/04/17 10:13:02;;;;;;;5.07;3.30;;;;;;;15.65;26.81;100019.59;5087561;28;20311;-71
2022/04/17 10:15:35;;;;;;;4.75;2.55;;;;;;;15.55;26.39;100010.44;5070659;28;20091;-71
2022/04/17 10:18:10;;;;;;;4.63;3.03;;;;;;;15.72;27.30;100018.22;5087911;28;20044;-70
2022/04/17 10:20:42;;;;;;;;;;;;;;;15.94;26.11;100009.66;5088208;28;20040;-70
2022/04/17 10:23:16;;;;;;;3.45;1.80;;;;;;;16.27;27.61;100011.84;5088011;28;19916;-71
2022/04/17 10:25:51;;;;;;;4.25;2.70;;;;;;;16.00;26.55;100009.22;5087739;28;20047;-71
2022/04/17 10:28:27;;;;;;;3.70;2.55;;;;;;;15.83;27.10;100002.34;5088121;28;20051;-71
2022/04/17 10:31:13;;;;;;;4.85;3.60;;;;;;;15.97;26.61;100002.28;5087698;28;20047;-71
2022/04/17 10:34:41;;;;;;;4.15;2.75;;;;;;;16.00;25.28;99993.19;5087764;28;20319;-71
2022/04/17 10:37:32;;;;;;;4.72;2.45;;;;;;;15.91;25.98;99977.78;5054330;28;20064;-71
2022/04/17 10:40:10;;;;;;;3.78;2.63;;;;;;;15.72;26.75;99975.47;5087577;28;20289;-70
2022/04/17 10:42:55;;;;;;;3.88;3.10;;;;;;;15.83;25.58;99970.28;5087375;28;20041;-70
2022/04/17 10:45:31;;;;;;;4.05;2.45;;;;;;;14.78;26.92;99822.34;5087260;28;20213;-70
2022/04/17 10:48:09;;;;;;;4.65;3.28;;;;;;;15.77;25.89;99976.03;5087294;28;20048;-71
2022/04/17 10:50:44;;;;;;;5.50;3.47;;;;;;;15.84;27.40;99971.13;5087109;28;20041;-70
2022/04/17 10:53:26;;;;;;;3.70;3.05;;;;;;;16.02;26.27;99964.53;5087187;28;20040;-70
2022/04/17 10:56:03;;;;;;;7.82;3.88;;;;;;;15.54;26.35;99886.69;5087294;28;20051;-70
2022/04/17 10:58:40;;;;;;;6.18;5.28;;;;;;;15.68;26.74;99917.84;5086851;28;20045;-71
2022/04/17 11:01:10;;;;;;;7.47;5.90;;;;;;;14.59;27.31;99733.75;5086932;28;20048;-71
2022/04/17 11:03:39;;;;;;;5.78;4.63;;;;;;;15.87;27.18;99953.06;5086404;28;20041;-70
2022/04/17 11:06:31;;;;;;;5.00;4.15;;;;;;;15.95;26.58;99936.50;5086554;28;20041;-70
2022/04/17 11:09:12;;;;;;;5.88;2.78;;;;;;;15.99;25.44;99948.72;5086413;28;20056;-70
2022/04/17 11:11:45;;;;;;;4.60;2.83;;;;;;;15.83;27.21;99943.53;5086871;28;20037;-70
2022/04/17 11:14:20;;;;;;;4.53;3.13;;;;;;;15.81;26.44;99936.59;5069044;28;20040;-70
2022/04/17 11:16:54;;;;;;;7.10;3.55;;;;;;;15.88;26.01;99967.28;5086252;28;20044;-70
2022/04/17 11:19:27;;;;;;;;;;;;;;;15.54;23.89;99940.13;5086734;28;20037;-70
2022/04/17 11:22:02;;;;;;;4.47;3.10;;;;;;;15.08;25.17;99900.41;5086414;28;19916;-70
2022/04/17 11:25:03;;;;;;;4.55;2.85;;;;;;;15.42;25.20;99940.94;5086223;28;20048;-71
2022/04/17 11:27:38;;;;;;;5.68;2.78;;;;;;;15.68;27.01;99940.09;5086377;28;20212;-70
2022/04/17 11:30:31;;;;;;;6.00;2.45;;;;;;;15.60;25.23;99867.56;5068982;28;20048;-70
2022/04/17 11:33:06;;;;;;;4.28;2.80;;;;;;;15.82;25.20;99932.97;5086419;28;20048;-70
2022/04/17 11:35:41;;;;;;;5.13;2.65;;;;;;;14.89;25.16;99827.84;5086136;28;20040;-70
2022/04/17 11:38:15;;;;;;;4.15;2.53;;;;;;;15.70;25.40;99927.47;5086074;28;20220;-70
2022/04/17 11:40:49;;;;;;;3.93;2.67;;;;;;;15.79;25.58;99922.47;5086322;28;20043;-69
2022/04/17 11:43:22;;;;;;;3.47;2.38;;;;;;;15.81;26.16;99917.88;5086031;28;20036;-69
2022/04/17 11:46:05;;;;;;;6.10;2.88;;;;;;;15.73;24.07;99910.38;5085787;28;20063;-70
2022/04/17 11:48:38;;;;;;;4.95;3.05;;;;;;;15.74;25.83;99905.91;5085693;28;20044;-70
2022/04/17 11:51:20;;;;;;;3.63;2.50;;;;;;;15.84;24.47;99906.97;5086108;28;20040;-70
2022/04/17 11:53:53;;;;;;;5.35;3.55;;;;;;;15.92;25.32;99900.16;5086188;28;20063;-70
2022/04/17 11:56:50;;;;;;;6.25;3.28;;;;;;;15.91;24.66;99900.25;5086106;28;20044;-69
2022/04/17 11:59:23;;;;;;;5.57;3.35;;;;;;;14.80;25.88;99687.03;5085668;28;20047;-69
2022/04/17 12:02:12;;;;;;;3.97;2.95;;;;;;;15.91;22.99;99887.75;5085530;28;20041;-69
2022/04/17 12:04:46;;;;;;;6.32;3.55;;;;;;;15.72;25.34;99881.94;5085598;28;20036;-69
2022/04/17 12:07:20;;;;;;;3.70;2.60;;;;;;;15.61;24.60;99874.63;5085351;28;20204;-70
2022/04/17 12:10:05;;;;;;;3.55;2.90;;;;;;;15.38;24.10;99876.19;5085531;28;20048;-70
2022/04/17 12:12:39;;;;;;;;;;;;;;;15.49;24.26;99871.94;5086409;28;20048;-70
2022/04/17 12:15:14;;;;;;;3.17;2.28;;;;;;;15.68;25.38;99869.75;5086007;28;19923;-70